Time;durP1;ratioP1;P1;durP2;ratioP2;P2;SDS_P1;SDS_P2;PMS_P1;PMS_P2;Temp;Humidity;BMP_temperature;BMP_pressure;BME280_temperature;BME280_humidity;BME280_pressure;Samples;Min_cycle;Max_cycle;Signal;HPM_P1;HPM_P2
2021/12/10 00:01:33;;;;;;;26.05;12.80;;;;;;;;;;5072104;28;20029;-74
2021/12/10 00:04:00;;;;;;;26.23;14.90;;;;;;;;;;5070219;28;20023;-74
2021/12/10 00:06:35;;;;;;;19.13;11.70;;;;;;;;;;5070770;28;20033;-73
2021/12/10 00:09:11;;;;;;;19.88;10.23;;;;;;;;;;5070130;28;20396;-73
2021/12/10 00:11:50;;;;;;;19.73;9.45;;;;;;;;;;5071890;28;20439;-73
2021/12/10 00:14:16;;;;;;;15.05;8.52;;;;;;;;;;5070538;28;20031;-73
2021/12/10 00:16:43;;;;;;;22.42;9.05;;;;;;;;;;5070418;28;20036;-73
2021/12/10 00:19:23;;;;;;;19.55;8.82;;;;;;;;;;5070432;28;20024;-73
2021/12/10 00:21:50;;;;;;;17.30;8.15;;;;;;;;;;5070285;28;20031;-73
2021/12/10 00:24:17;;;;;;;14.85;8.43;;;;;;;;;;5071242;28;20358;-73
2021/12/10 00:26:45;;;;;;;14.52;8.02;;;;;;;;;;5072438;28;20036;-73
2021/12/10 00:29:12;;;;;;;14.48;9.43;;;;;;;;;;5070219;28;20029;-73
2021/12/10 00:31:48;;;;;;;14.98;8.05;;;;;;;;;;5070123;28;20027;-73
2021/12/10 00:34:33;;;;;;;10.30;7.50;;;;;;;;;;5070274;28;20017;-73
2021/12/10 00:37:06;;;;;;;13.40;8.20;;;;;;;;;;5069689;28;20085;-73
2021/12/10 00:39:34;;;;;;;11.95;7.10;;;;;;;;;;5071471;28;20027;-73
2021/12/10 00:42:02;;;;;;;13.50;7.15;;;;;;;;;;5072467;28;20304;-73
2021/12/10 00:44:28;;;;;;;13.43;6.90;;;;;;;;;;5071739;28;20048;-73
2021/12/10 00:46:54;;;;;;;17.13;7.13;;;;;;;;;;5069879;28;20028;-73
2021/12/10 00:49:21;;;;;;;12.73;7.40;;;;;;;;;;5069822;28;20043;-73
2021/12/10 00:51:47;;;;;;;12.20;6.80;;;;;;;;;;5069567;28;20036;-73
2021/12/10 00:54:14;;;;;;;14.20;7.60;;;;;;;;;;5071272;28;20081;-73
2021/12/10 00:56:41;;;;;;;11.70;7.65;;;;;;;;;;5071110;28;20048;-73
2021/12/10 00:59:08;;;;;;;11.95;6.93;;;;;;;;;;5069661;28;20020;-73
2021/12/10 01:01:35;;;;;;;15.02;7.43;;;;;;;;;;5069645;28;20027;-73
2021/12/10 01:04:05;;;;;;;14.43;7.20;;;;;;;;;;5069072;28;20497;-73
2021/12/10 01:06:31;;;;;;;13.45;7.20;;;;;;;;;;5069123;28;20041;-73
2021/12/10 01:09:00;;;;;;;13.80;7.70;;;;;;;;;;5072617;28;20029;-73
2021/12/10 01:11:31;;;;;;;16.48;8.80;;;;;;;;;;5070056;28;20389;-73
2021/12/10 01:14:08;;;;;;;16.23;8.75;;;;;;;;;;5069222;28;20050;-73
2021/12/10 01:25:06;;;;;;;17.10;8.32;;;;;;;;;;5055381;28;20658;-74
2021/12/10 01:27:35;;;;;;;13.38;8.15;;;;;;;;;;5054303;28;20033;-73
2021/12/10 01:30:01;;;;;;;15.55;8.93;;;;;;;;;;5071717;28;20043;-74
2021/12/10 01:32:32;;;;;;;16.08;9.43;;;;;;;;;;5069728;28;20054;-74
2021/12/10 01:34:59;;;;;;;21.65;11.93;;;;;;;;;;5068590;28;20013;-74
2021/12/10 01:37:25;;;;;;;22.75;12.10;;;;;;;;;;5068975;28;20511;-73
2021/12/10 01:39:52;;;;;;;28.48;15.73;;;;;;;;;;5068792;28;20035;-73
2021/12/10 01:44:53;;;;;;;27.02;17.55;;;;;;;;;;5071702;28;20048;-73
2021/12/10 01:47:21;;;;;;;24.58;15.63;;;;;;;;;;5068726;28;20020;-73
2021/12/10 01:49:48;;;;;;;31.45;16.52;;;;;;;;;;5068388;28;20028;-73
2021/12/10 01:52:16;;;;;;;29.45;18.45;;;;;;;;;;5068736;28;20481;-73
2021/12/10 01:54:44;;;;;;;29.92;18.17;;;;;;;;;;5068618;28;20055;-73
2021/12/10 01:57:11;;;;;;;29.15;17.05;;;;;;;;;;5069933;28;20489;-73
2021/12/10 01:59:38;;;;;;;31.30;19.25;;;;;;;;;;5069819;28;20025;-73
2021/12/10 02:02:07;;;;;;;32.97;17.70;;;;;;;;;;5068177;28;20024;-73
2021/12/10 02:04:35;;;;;;;24.75;16.33;;;;;;;;;;5068142;28;20024;-73
2021/12/10 02:07:02;;;;;;;28.98;15.70;;;;;;;;;;5067446;28;20501;-73
2021/12/10 02:09:28;;;;;;;24.48;15.73;;;;;;;;;;5068432;28;20017;-73
2021/12/10 02:11:55;;;;;;;24.98;15.45;;;;;;;;;;5071589;28;20508;-74
2021/12/10 02:14:21;;;;;;;22.85;14.38;;;;;;;;;;5068255;28;20524;-74
2021/12/10 02:16:48;;;;;;;20.50;13.75;;;;;;;;;;5068083;28;20526;-73
2021/12/10 02:19:15;;;;;;;19.60;11.43;;;;;;;;;;5067792;28;20019;-73
2021/12/10 02:21:42;;;;;;;19.02;11.88;;;;;;;;;;5067873;28;20028;-74
2021/12/10 02:24:10;;;;;;;17.42;11.25;;;;;;;;;;5070276;28;20027;-73
2021/12/10 02:26:39;;;;;;;16.67;10.98;;;;;;;;;;5068831;28;20492;-73
2021/12/10 02:29:06;;;;;;;19.20;11.18;;;;;;;;;;5067988;28;20400;-73
2021/12/10 02:31:32;;;;;;;26.25;15.25;;;;;;;;;;5068023;28;20024;-73
2021/12/10 02:34:01;;;;;;;20.67;13.55;;;;;;;;;;5068044;28;20032;-74
2021/12/10 02:36:28;;;;;;;22.55;13.73;;;;;;;;;;5053372;28;20047;-73
2021/12/10 02:38:55;;;;;;;21.77;13.00;;;;;;;;;;5067075;28;20024;-73
2021/12/10 02:41:23;;;;;;;24.35;14.30;;;;;;;;;;5067573;28;20030;-73
2021/12/10 02:43:49;;;;;;;20.05;13.80;;;;;;;;;;5066289;28;20029;-74
2021/12/10 02:46:16;;;;;;;21.77;14.45;;;;;;;;;;5067388;28;20025;-73
2021/12/10 02:48:42;;;;;;;21.42;14.75;;;;;;;;;;5067788;28;20025;-73
2021/12/10 02:51:10;;;;;;;20.98;12.50;;;;;;;;;;5070024;28;20031;-74
2021/12/10 02:53:41;;;;;;;21.75;13.63;;;;;;;;;;5068511;28;20397;-73
2021/12/10 02:56:08;;;;;;;17.88;11.65;;;;;;;;;;5067510;28;20439;-73
2021/12/10 02:58:35;;;;;;;15.13;9.98;;;;;;;;;;5066433;28;20050;-73
2021/12/10 03:01:07;;;;;;;14.05;8.82;;;;;;;;;;5066885;28;20025;-73
2021/12/10 03:03:35;;;;;;;10.88;8.23;;;;;;;;;;5067534;28;20099;-73
2021/12/10 03:06:01;;;;;;;15.77;9.88;;;;;;;;;;5070466;28;20020;-74
2021/12/10 03:08:28;;;;;;;17.42;10.18;;;;;;;;;;5068167;28;20027;-73
2021/12/10 03:10:54;;;;;;;15.85;10.27;;;;;;;;;;5067553;28;20027;-73
2021/12/10 03:13:20;;;;;;;16.38;9.95;;;;;;;;;;5067707;28;20481;-73
2021/12/10 03:15:47;;;;;;;15.88;10.30;;;;;;;;;;5068213;28;20021;-73
2021/12/10 03:18:15;;;;;;;15.35;9.98;;;;;;;;;;5071361;28;20032;-73
2021/12/10 03:20:41;;;;;;;13.23;9.88;;;;;;;;;;5073079;28;20023;-73
2021/12/10 03:23:09;;;;;;;12.55;8.70;;;;;;;;;;5071334;28;20025;-74
2021/12/10 03:25:36;;;;;;;12.95;8.88;;;;;;;;;;5071480;28;20036;-73
2021/12/10 03:28:03;;;;;;;12.38;8.43;;;;;;;;;;5070182;28;20486;-73
2021/12/10 03:30:32;;;;;;;9.35;6.90;;;;;;;;;;5071143;28;20058;-74
2021/12/10 03:32:58;;;;;;;9.60;6.25;;;;;;;;;;5074375;28;20036;-73
2021/12/10 03:35:30;;;;;;;9.27;6.07;;;;;;;;;;5071547;28;20025;-73
2021/12/10 03:37:56;;;;;;;;;;;;;;;;;;5071517;28;20040;-73
2021/12/10 03:40:23;;;;;;;6.55;3.60;;;;;;;;;;5070697;28;19965;-73
2021/12/10 03:42:53;;;;;;;4.95;3.88;;;;;;;;;;5071150;28;20382;-73
2021/12/10 03:45:19;;;;;;;5.25;3.85;;;;;;;;;;5071663;28;20049;-73
2021/12/10 03:47:46;;;;;;;4.88;3.67;;;;;;;;;;5073456;28;20039;-74
2021/12/10 03:50:20;;;;;;;5.38;4.05;;;;;;;;;;5071086;28;20032;-73
2021/12/10 03:52:46;;;;;;;5.57;3.65;;;;;;;;;;5070938;28;20028;-73
2021/12/10 03:55:14;;;;;;;5.05;3.75;;;;;;;;;;5072058;28;20378;-73
2021/12/10 03:57:40;;;;;;;5.65;4.25;;;;;;;;;;5070473;28;20059;-73
2021/12/10 04:00:07;;;;;;;3.92;3.53;;;;;;;;;;5072902;28;20024;-73
2021/12/10 04:02:33;;;;;;;4.82;3.95;;;;;;;;;;5071482;28;20029;-73
2021/12/10 04:05:00;;;;;;;6.43;3.60;;;;;;;;;;5070493;28;20031;-73
2021/12/10 04:07:26;;;;;;;4.88;4.03;;;;;;;;;;5070632;28;20025;-73
2021/12/10 04:09:53;;;;;;;4.43;3.85;;;;;;;;;;5070626;28;20517;-73
2021/12/10 04:12:20;;;;;;;7.28;4.15;;;;;;;;;;5071766;28;20029;-73
2021/12/10 04:14:48;;;;;;;5.22;3.78;;;;;;;;;;5072610;28;20034;-73
2021/12/10 04:17:17;;;;;;;4.55;2.95;;;;;;;;;;5070298;28;20035;-73
2021/12/10 04:19:45;;;;;;;4.47;3.42;;;;;;;;;;5069987;28;20542;-73
2021/12/10 04:22:13;;;;;;;4.82;3.45;;;;;;;;;;5070213;28;20401;-73
2021/12/10 04:24:41;;;;;;;5.93;3.05;;;;;;;;;;5070503;28;20027;-73
2021/12/10 04:27:08;;;;;;;5.78;4.00;;;;;;;;;;5072826;28;20039;-73
2021/12/10 04:29:34;;;;;;;9.02;5.03;;;;;;;;;;5070018;28;20482;-73
2021/12/10 04:32:01;;;;;;;6.47;4.40;;;;;;;;;;5070161;28;20507;-73
2021/12/10 04:34:28;;;;;;;8.63;5.10;;;;;;;;;;5071457;28;20024;-73
2021/12/10 04:36:56;;;;;;;8.85;4.80;;;;;;;;;;5069926;28;20077;-73
2021/12/10 04:39:23;;;;;;;6.60;4.70;;;;;;;;;;5070846;28;20583;-73
2021/12/10 04:41:50;;;;;;;4.60;3.92;;;;;;;;;;5073069;28;20035;-73
2021/12/10 04:44:16;;;;;;;4.38;3.40;;;;;;;;;;5069371;28;20040;-73
2021/12/10 04:46:43;;;;;;;6.68;4.13;;;;;;;;;;5069817;28;20035;-73
2021/12/10 04:49:12;;;;;;;4.85;3.47;;;;;;;;;;5069951;28;20013;-73
2021/12/10 04:51:47;;;;;;;3.70;2.80;;;;;;;;;;5069910;28;20017;-73
2021/12/10 04:54:13;;;;;;;2.67;2.00;;;;;;;;;;5071901;28;20105;-73
2021/12/10 04:56:40;;;;;;;3.55;1.90;;;;;;;;;;5070678;28;20039;-74
2021/12/10 04:59:08;;;;;;;5.57;2.50;;;;;;;;;;5069268;28;20028;-73
2021/12/10 05:01:35;;;;;;;4.13;1.98;;;;;;;;;;5069745;28;20012;-73
2021/12/10 05:04:01;;;;;;;2.50;1.92;;;;;;;;;;5069565;28;20347;-73
2021/12/10 05:06:28;;;;;;;3.10;2.05;;;;;;;;;;5069737;28;20099;-73
2021/12/10 05:08:54;;;;;;;3.10;2.53;;;;;;;;;;5072795;28;20038;-73
2021/12/10 05:11:20;;;;;;;5.63;2.92;;;;;;;;;;5069205;28;20385;-73
2021/12/10 05:13:48;;;;;;;4.70;2.80;;;;;;;;;;5071175;28;20073;-73
2021/12/10 05:16:14;;;;;;;4.45;2.90;;;;;;;;;;5069352;28;20025;-73
2021/12/10 05:18:44;;;;;;;3.55;2.95;;;;;;;;;;5069637;28;20029;-73
2021/12/10 05:21:11;;;;;;;4.40;3.38;;;;;;;;;;5071536;28;20078;-74
2021/12/10 05:23:38;;;;;;;5.10;3.28;;;;;;;;;;5070178;28;20042;-73
2021/12/10 05:26:05;;;;;;;7.97;5.25;;;;;;;;;;5068788;28;20515;-73
2021/12/10 05:28:32;;;;;;;7.53;5.57;;;;;;;;;;5069357;28;20391;-74
2021/12/10 05:30:59;;;;;;;10.15;6.78;;;;;;;;;;5069206;28;20025;-74
2021/12/10 05:33:26;;;;;;;10.20;6.43;;;;;;;;;;5053483;28;20024;-73
2021/12/10 05:35:53;;;;;;;7.18;5.35;;;;;;;;;;5072129;28;20029;-73
2021/12/10 05:38:21;;;;;;;9.70;5.65;;;;;;;;;;5068580;28;20046;-73
2021/12/10 05:40:48;;;;;;;5.50;4.20;;;;;;;;;;5068894;28;20050;-73
2021/12/10 05:43:15;;;;;;;4.97;3.88;;;;;;;;;;5068563;28;20028;-73
2021/12/10 05:45:41;;;;;;;7.00;4.78;;;;;;;;;;5069348;28;20032;-73
2021/12/10 05:48:08;;;;;;;9.70;5.40;;;;;;;;;;5071213;28;20039;-73
2021/12/10 05:50:35;;;;;;;6.95;5.45;;;;;;;;;;5069652;28;20519;-73
2021/12/10 05:53:02;;;;;;;6.75;4.72;;;;;;;;;;5069924;28;20029;-73
2021/12/10 05:55:29;;;;;;;5.22;3.90;;;;;;;;;;5068106;28;20473;-73
2021/12/10 05:57:55;;;;;;;6.90;4.88;;;;;;;;;;5068508;28;20032;-73
2021/12/10 06:00:26;;;;;;;6.47;5.07;;;;;;;;;;5069296;28;20085;-73
2021/12/10 06:02:53;;;;;;;6.75;5.45;;;;;;;;;;5071606;28;20058;-73
2021/12/10 06:05:19;;;;;;;5.22;4.40;;;;;;;;;;5068259;28;20047;-73
2021/12/10 06:07:46;;;;;;;7.40;5.13;;;;;;;;;;5068321;28;20031;-73
2021/12/10 06:10:14;;;;;;;5.88;4.50;;;;;;;;;;5067934;28;20031;-73
2021/12/10 06:12:40;;;;;;;10.43;6.55;;;;;;;;;;5068385;28;20025;-73
2021/12/10 06:15:08;;;;;;;22.08;12.68;;;;;;;;;;5070134;28;20028;-73
2021/12/10 06:17:34;;;;;;;7.60;4.90;;;;;;;;;;5069016;28;20081;-73
2021/12/10 06:20:01;;;;;;;7.97;6.07;;;;;;;;;;5068074;28;20032;-73
2021/12/10 06:22:27;;;;;;;11.18;7.45;;;;;;;;;;5067897;28;20028;-73
2021/12/10 06:24:53;;;;;;;14.07;8.15;;;;;;;;;;5067943;28;20438;-73
2021/12/10 06:27:20;;;;;;;14.70;8.25;;;;;;;;;;5069264;28;20490;-73
2021/12/10 06:29:46;;;;;;;20.48;11.40;;;;;;;;;;5070318;28;20032;-74
2021/12/10 06:32:12;;;;;;;16.38;10.85;;;;;;;;;;5069387;28;20031;-73
2021/12/10 06:34:39;;;;;;;15.93;9.65;;;;;;;;;;5067647;28;20034;-73
2021/12/10 06:37:06;;;;;;;14.55;9.55;;;;;;;;;;5067893;28;20036;-74
2021/12/10 06:39:32;;;;;;;12.93;8.70;;;;;;;;;;5067704;28;20021;-74
2021/12/10 06:41:59;;;;;;;10.85;7.10;;;;;;;;;;5070929;28;20042;-73
2021/12/10 06:44:25;;;;;;;13.02;7.97;;;;;;;;;;5067742;28;20044;-73
2021/12/10 06:46:51;;;;;;;20.40;10.07;;;;;;;;;;5068016;28;20028;-73
2021/12/10 06:49:18;;;;;;;14.10;9.07;;;;;;;;;;5069826;28;20038;-73
2021/12/10 06:51:45;;;;;;;15.32;9.63;;;;;;;;;;5067471;28;20070;-73
2021/12/10 06:54:11;;;;;;;17.20;9.27;;;;;;;;;;5069297;28;20050;-73
2021/12/10 06:56:38;;;;;;;13.75;8.57;;;;;;;;;;5068710;28;20036;-73
2021/12/10 06:59:06;;;;;;;14.40;7.90;;;;;;;;;;5067588;28;20017;-74
2021/12/10 07:01:38;;;;;;;15.48;7.78;;;;;;;;;;5066776;28;20562;-73
2021/12/10 07:04:05;;;;;;;12.88;5.22;;;;;;;;;;5067483;28;20013;-73
2021/12/10 07:06:32;;;;;;;15.57;4.07;;;;;;;;;;5067573;28;20035;-73
2021/12/10 07:09:00;;;;;;;12.13;3.55;;;;;;;;;;5069836;28;20028;-74
2021/12/10 07:11:27;;;;;;;13.27;2.20;;;;;;;;;;5068199;28;20017;-73
2021/12/10 07:13:54;;;;;;;9.38;2.05;;;;;;;;;;5068750;28;20028;-73
2021/12/10 07:16:22;;;;;;;8.73;1.20;;;;;;;;;;5066910;28;20028;-73
2021/12/10 07:18:49;;;;;;;10.13;1.40;;;;;;;;;;5067363;28;20058;-73
2021/12/10 07:21:16;;;;;;;9.18;1.67;;;;;;;;;;5068914;28;20519;-73
2021/12/10 07:23:42;;;;;;;11.68;1.75;;;;;;;;;;5068655;28;20032;-73
2021/12/10 07:26:10;;;;;;;11.07;1.80;;;;;;;;;;5068977;28;20054;-72
2021/12/10 07:28:36;;;;;;;14.57;2.10;;;;;;;;;;5070052;28;20400;-73
2021/12/10 07:31:04;;;;;;;9.95;1.67;;;;;;;;;;5065589;28;20589;-73
2021/12/10 07:33:30;;;;;;;13.05;2.10;;;;;;;;;;5066886;28;20017;-74
2021/12/10 07:35:57;;;;;;;12.10;1.92;;;;;;;;;;5064909;28;20058;-73
2021/12/10 07:38:23;;;;;;;14.07;2.00;;;;;;;;;;5065774;28;20050;-74
2021/12/10 07:40:50;;;;;;;10.20;1.73;;;;;;;;;;5064819;28;20012;-74
2021/12/10 07:43:17;;;;;;;11.88;1.60;;;;;;;;;;5065931;28;20028;-74
2021/12/10 07:45:46;;;;;;;7.85;1.83;;;;;;;;;;5066046;28;20046;-74
2021/12/10 07:48:16;;;;;;;7.28;1.50;;;;;;;;;;5068270;28;20012;-73
2021/12/10 07:50:44;;;;;;;8.13;1.38;;;;;;;;;;5068864;28;20486;-74
2021/12/10 07:53:11;;;;;;;11.55;2.03;;;;;;;;;;5067298;28;20023;-73
2021/12/10 07:55:39;;;;;;;7.70;1.45;;;;;;;;;;5066009;28;20033;-73
2021/12/10 07:58:06;;;;;;;9.60;2.17;;;;;;;;;;5065941;28;20033;-73
2021/12/10 08:00:34;;;;;;;8.90;1.88;;;;;;;;;;5066624;28;20029;-73
2021/12/10 08:03:00;;;;;;;11.95;2.13;;;;;;;;;;5068781;28;20020;-73
2021/12/10 08:05:27;;;;;;;18.38;3.63;;;;;;;;;;5068896;28;20028;-73
2021/12/10 08:07:55;;;;;;;13.02;2.42;;;;;;;;;;5069723;28;20032;-72
2021/12/10 08:10:21;;;;;;;11.65;1.70;;;;;;;;;;5070661;28;20013;-74
2021/12/10 08:12:48;;;;;;;9.95;2.15;;;;;;;;;;5069467;28;20420;-72
2021/12/10 08:15:14;;;;;;;10.18;1.55;;;;;;;;;;5071329;28;20028;-71
2021/12/10 08:17:42;;;;;;;10.95;1.73;;;;;;;;;;5070877;28;20362;-74
2021/12/10 08:20:10;;;;;;;10.57;1.70;;;;;;;;;;5069380;28;20032;-73
2021/12/10 08:22:36;;;;;;;11.98;1.90;;;;;;;;;;5068950;28;20056;-73
2021/12/10 08:25:04;;;;;;;18.15;2.20;;;;;;;;;;5068996;28;20460;-74
2021/12/10 08:27:30;;;;;;;12.27;2.10;;;;;;;;;;5069671;28;20032;-73
2021/12/10 08:30:02;;;;;;;11.60;2.17;;;;;;;;;;5072424;28;20024;-73
2021/12/10 08:32:29;;;;;;;11.68;2.33;;;;;;;;;;5071563;28;20492;-74
2021/12/10 08:34:56;;;;;;;13.35;1.60;;;;;;;;;;5069328;28;20031;-73
2021/12/10 08:37:22;;;;;;;15.82;1.77;;;;;;;;;;5069854;28;20042;-74
2021/12/10 08:39:50;;;;;;;7.35;2.03;;;;;;;;;;5068687;28;20085;-74
2021/12/10 08:42:17;;;;;;;12.10;1.67;;;;;;;;;;5071673;28;20020;-74
2021/12/10 08:44:43;;;;;;;11.60;1.90;;;;;;;;;;5070224;28;20045;-74
2021/12/10 08:47:12;;;;;;;10.95;1.80;;;;;;;;;;5068475;28;20036;-73
2021/12/10 08:49:39;;;;;;;10.25;2.03;;;;;;;;;;5069025;28;20048;-74
2021/12/10 08:52:08;;;;;;;8.98;2.20;;;;;;;;;;5067351;28;20024;-73
2021/12/10 08:54:35;;;;;;;8.73;1.85;;;;;;;;;;5071848;28;20039;-74
2021/12/10 08:57:01;;;;;;;6.10;1.80;;;;;;;;;;5071359;28;20578;-74
2021/12/10 08:59:28;;;;;;;9.50;2.00;;;;;;;;;;5070181;28;20036;-74
2021/12/10 09:01:59;;;;;;;12.15;2.08;;;;;;;;;;5068836;28;20024;-73
2021/12/10 09:04:25;;;;;;;;;;;;;;;;;;5069313;28;20028;-74
2021/12/10 09:06:55;;;;;;;8.25;1.33;;;;;;;;;;5070302;28;19912;-73
2021/12/10 09:09:21;;;;;;;9.88;1.70;;;;;;;;;;5069503;28;20033;-74
2021/12/10 09:11:50;;;;;;;11.40;2.55;;;;;;;;;;5071364;28;20423;-73
2021/12/10 09:14:17;;;;;;;7.43;1.88;;;;;;;;;;5069432;28;20029;-74
2021/12/10 09:16:45;;;;;;;12.43;2.10;;;;;;;;;;5068124;28;20507;-74
2021/12/10 09:19:13;;;;;;;6.70;1.55;;;;;;;;;;5066988;28;20024;-73
2021/12/10 09:21:40;;;;;;;14.63;2.20;;;;;;;;;;5068918;28;20507;-73
2021/12/10 09:24:08;;;;;;;12.93;1.85;;;;;;;;;;5070255;28;20485;-73
2021/12/10 09:26:36;;;;;;;10.77;1.45;;;;;;;;;;5070286;28;20052;-74
2021/12/10 09:29:04;;;;;;;8.45;1.95;;;;;;;;;;5069282;28;20371;-74
2021/12/10 09:31:30;;;;;;;7.30;1.65;;;;;;;;;;5068512;28;20028;-74
2021/12/10 09:33:58;;;;;;;6.13;1.48;;;;;;;;;;5068064;28;20026;-74
2021/12/10 09:36:25;;;;;;;10.05;2.15;;;;;;;;;;5068729;28;20032;-73
2021/12/10 09:38:51;;;;;;;9.40;2.00;;;;;;;;;;5071040;28;20024;-74
2021/12/10 09:41:18;;;;;;;13.23;2.35;;;;;;;;;;5068443;28;20024;-74
2021/12/10 09:43:44;;;;;;;8.65;1.65;;;;;;;;;;5067628;28;20443;-74
2021/12/10 09:46:11;;;;;;;10.55;2.50;;;;;;;;;;5069170;28;20042;-74
2021/12/10 09:48:39;;;;;;;8.35;1.50;;;;;;;;;;5067848;28;20486;-74
2021/12/10 09:51:14;;;;;;;9.13;2.03;;;;;;;;;;5068874;28;20030;-74
2021/12/10 09:53:42;;;;;;;11.45;2.15;;;;;;;;;;5069325;28;20043;-74
2021/12/10 09:56:09;;;;;;;9.98;2.08;;;;;;;;;;5067791;28;20312;-74
2021/12/10 09:58:36;;;;;;;12.88;2.05;;;;;;;;;;5067957;28;20085;-73
2021/12/10 10:01:09;;;;;;;9.20;1.95;;;;;;;;;;5067256;28;20408;-75
2021/12/10 10:03:38;;;;;;;6.80;1.80;;;;;;;;;;5068091;28;20017;-74
2021/12/10 10:06:05;;;;;;;6.88;1.65;;;;;;;;;;5069689;28;20082;-74
2021/12/10 10:08:32;;;;;;;8.40;1.90;;;;;;;;;;5067802;28;20044;-73
2021/12/10 10:11:02;;;;;;;9.70;2.03;;;;;;;;;;5067562;28;20022;-74
2021/12/10 10:13:32;;;;;;;8.10;1.65;;;;;;;;;;5067919;28;20016;-74
2021/12/10 10:15:59;;;;;;;10.30;1.87;;;;;;;;;;5068045;28;20017;-74
2021/12/10 10:18:26;;;;;;;7.97;1.58;;;;;;;;;;5052302;28;20295;-74
2021/12/10 10:21:00;;;;;;;7.93;1.40;;;;;;;;;;5071816;28;20025;-74
2021/12/10 10:23:28;;;;;;;8.40;1.83;;;;;;;;;;5068357;28;20036;-74
2021/12/10 10:25:55;;;;;;;8.40;1.30;;;;;;;;;;5069420;28;20384;-73
2021/12/10 10:28:22;;;;;;;9.23;1.38;;;;;;;;;;5066564;28;20024;-74
2021/12/10 10:30:56;;;;;;;5.88;1.30;;;;;;;;;;5067507;28;20047;-74
2021/12/10 10:33:23;;;;;;;5.78;1.20;;;;;;;;;;5068286;28;20031;-74
2021/12/10 10:35:52;;;;;;;6.18;1.17;;;;;;;;;;5070592;28;20485;-74
2021/12/10 10:38:19;;;;;;;6.22;1.95;;;;;;;;;;5067514;28;20382;-73
2021/12/10 10:40:52;;;;;;;7.20;1.85;;;;;;;;;;5067768;28;20025;-74
2021/12/10 10:43:19;;;;;;;7.70;1.50;;;;;;;;;;5067182;28;20042;-74
2021/12/10 10:45:45;;;;;;;6.93;1.67;;;;;;;;;;5067545;28;20032;-74
2021/12/10 10:48:16;;;;;;;5.10;1.80;;;;;;;;;;5068776;28;20059;-73
2021/12/10 10:50:53;;;;;;;6.93;1.65;;;;;;;;;;5071231;28;20020;-73
2021/12/10 10:53:22;;;;;;;9.27;1.60;;;;;;;;;;5067303;28;20024;-73
2021/12/10 10:55:51;;;;;;;6.38;1.40;;;;;;;;;;5067079;28;20028;-73
2021/12/10 10:58:19;;;;;;;7.72;1.63;;;;;;;;;;5066960;28;20039;-74
2021/12/10 11:00:58;;;;;;;6.82;1.60;;;;;;;;;;5067250;28;20035;-71
2021/12/10 11:03:31;;;;;;;8.98;1.90;;;;;;;;;;5069095;28;20036;-71
2021/12/10 11:05:58;;;;;;;5.55;2.08;;;;;;;;;;5065930;28;20514;-71
2021/12/10 11:08:27;;;;;;;8.48;1.58;;;;;;;;;;5068301;28;20022;-71
2021/12/10 11:10:58;;;;;;;5.85;1.63;;;;;;;;;;5068850;28;20031;-72
2021/12/10 11:13:27;;;;;;;8.55;2.08;;;;;;;;;;5067497;28;20028;-74
2021/12/10 11:15:58;;;;;;;6.57;1.40;;;;;;;;;;5067244;28;20482;-73
2021/12/10 11:18:25;;;;;;;4.65;1.20;;;;;;;;;;5070963;28;20037;-73
2021/12/10 11:20:51;;;;;;;7.20;1.85;;;;;;;;;;5070156;28;20035;-73
2021/12/10 11:23:20;;;;;;;7.18;1.60;;;;;;;;;;5067129;28;20481;-73
2021/12/10 11:25:49;;;;;;;9.65;1.85;;;;;;;;;;5066683;28;20024;-73
2021/12/10 11:28:17;;;;;;;8.23;1.83;;;;;;;;;;5066299;28;20446;-73
2021/12/10 11:30:47;;;;;;;7.10;1.65;;;;;;;;;;5067505;28;20021;-73
2021/12/10 11:33:14;;;;;;;5.82;1.75;;;;;;;;;;5068337;28;20024;-73
2021/12/10 11:35:47;;;;;;;9.93;2.10;;;;;;;;;;5066670;28;20040;-73
2021/12/10 11:38:15;;;;;;;8.85;1.90;;;;;;;;;;5065676;28;20021;-72
2021/12/10 11:40:49;;;;;;;9.38;2.15;;;;;;;;;;5071467;28;20546;-73
2021/12/10 11:48:42;;;;;;;7.57;2.13;;;;;;;;;;5056656;28;20017;-73
2021/12/10 11:51:08;;;;;;;7.43;1.65;;;;;;;;;;5071980;28;20029;-73
2021/12/10 11:53:46;;;;;;;9.27;3.05;;;;;;;;;;5071496;28;20029;-73
2021/12/10 11:56:16;;;;;;;5.18;2.03;;;;;;;;;;5070341;28;20025;-72
2021/12/10 11:58:42;;;;;;;6.22;1.85;;;;;;;;;;5069890;28;20050;-73
2021/12/10 12:01:16;;;;;;;6.80;1.80;;;;;;;;;;5070803;28;20024;-73
2021/12/10 12:03:43;;;;;;;5.63;1.27;;;;;;;;;;5069530;28;20032;-73
2021/12/10 12:06:10;;;;;;;3.92;1.15;;;;;;;;;;5072652;28;20035;-73
2021/12/10 12:08:39;;;;;;;5.30;1.20;;;;;;;;;;5072470;28;20024;-73
2021/12/10 12:11:08;;;;;;;4.80;1.70;;;;;;;;;;5071406;28;20021;-73
2021/12/10 12:13:50;;;;;;;6.10;1.48;;;;;;;;;;5071255;28;20017;-73
2021/12/10 12:16:18;;;;;;;12.05;3.00;;;;;;;;;;5071670;28;20489;-73
2021/12/10 12:18:49;;;;;;;7.32;1.98;;;;;;;;;;5071387;28;20040;-73
2021/12/10 12:27:06;;;;;;;14.95;1.50;;;;;;;;;;5066190;28;20029;-73
2021/12/10 12:29:36;;;;;;;6.63;1.40;;;;;;;;;;5072520;28;20389;-74
2021/12/10 12:32:08;;;;;;;7.47;1.50;;;;;;;;;;5069997;28;20043;-73
2021/12/10 12:34:34;;;;;;;7.25;1.98;;;;;;;;;;5069989;28;20039;-72
2021/12/10 12:37:02;;;;;;;6.05;1.40;;;;;;;;;;5070128;28;20025;-72
2021/12/10 12:39:31;;;;;;;9.27;1.90;;;;;;;;;;5070329;28;20481;-73
2021/12/10 12:41:58;;;;;;;4.20;1.10;;;;;;;;;;5078839;28;20031;-73
2021/12/10 12:44:25;;;;;;;4.13;1.23;;;;;;;;;;5070564;28;20048;-73
2021/12/10 12:46:56;;;;;;;7.95;1.73;;;;;;;;;;5069308;28;20024;-73
2021/12/10 12:49:22;;;;;;;;;;;;;;;;;;5070368;28;20034;-73
2021/12/10 12:52:07;;;;;;;5.20;0.85;;;;;;;;;;5068576;28;20373;-73
2021/12/10 12:54:36;;;;;;;5.63;0.90;;;;;;;;;;5052791;28;20033;-73
2021/12/10 12:57:04;;;;;;;5.63;1.00;;;;;;;;;;5069417;28;20040;-75
2021/12/10 12:59:31;;;;;;;3.30;0.90;;;;;;;;;;5071650;28;20035;-73
2021/12/10 13:01:59;;;;;;;3.15;0.85;;;;;;;;;;5070231;28;20029;-73
2021/12/10 13:04:28;;;;;;;1.60;0.73;;;;;;;;;;5068331;28;20037;-73
2021/12/10 13:06:57;;;;;;;2.08;1.20;;;;;;;;;;5069456;28;20031;-73
2021/12/10 13:09:35;;;;;;;2.35;0.80;;;;;;;;;;5069541;28;20041;-73
2021/12/10 13:12:20;;;;;;;3.35;1.27;;;;;;;;;;5072148;28;20029;-73
2021/12/10 13:14:51;;;;;;;4.65;1.25;;;;;;;;;;5070930;28;20475;-73
2021/12/10 13:17:17;;;;;;;;;;;;;;;;;;5081137;28;20036;-73
2021/12/10 13:19:43;;;;;;;3.25;1.20;;;;;;;;;;5068754;28;19913;-73
2021/12/10 13:22:14;;;;;;;7.38;1.55;;;;;;;;;;5068047;28;20025;-73
2021/12/10 13:24:41;;;;;;;5.95;1.55;;;;;;;;;;5068096;28;20025;-73
2021/12/10 13:27:09;;;;;;;7.15;1.70;;;;;;;;;;5071042;28;20029;-73
2021/12/10 13:29:36;;;;;;;4.93;1.90;;;;;;;;;;5069362;28;20527;-73
2021/12/10 13:32:05;;;;;;;7.45;2.08;;;;;;;;;;5069266;28;20027;-73
2021/12/10 13:34:31;;;;;;;8.50;2.10;;;;;;;;;;5068623;28;20374;-73
2021/12/10 13:36:59;;;;;;;8.85;1.60;;;;;;;;;;5069427;28;20485;-73
2021/12/10 13:39:25;;;;;;;6.30;1.52;;;;;;;;;;5070058;28;20064;-73
2021/12/10 13:41:52;;;;;;;7.65;1.73;;;;;;;;;;5072243;28;20017;-73
2021/12/10 13:44:32;;;;;;;7.45;1.50;;;;;;;;;;5068740;28;20055;-73
2021/12/10 13:47:01;;;;;;;6.90;1.50;;;;;;;;;;5070099;28;20020;-73
2021/12/10 13:49:44;;;;;;;6.65;1.70;;;;;;;;;;5066820;28;20039;-73
2021/12/10 13:52:10;;;;;;;10.88;1.77;;;;;;;;;;5063974;28;20036;-73
2021/12/10 13:54:42;;;;;;;7.63;1.55;;;;;;;;;;5068173;28;20031;-73
2021/12/10 13:57:11;;;;;;;6.38;1.70;;;;;;;;;;5070464;28;20036;-73
2021/12/10 13:59:37;;;;;;;9.63;2.05;;;;;;;;;;5069212;28;20029;-73
2021/12/10 14:02:06;;;;;;;5.43;1.40;;;;;;;;;;5066577;28;20396;-73
2021/12/10 14:04:37;;;;;;;6.93;1.60;;;;;;;;;;5069632;28;20016;-73
2021/12/10 14:07:06;;;;;;;9.95;2.47;;;;;;;;;;5067905;28;20019;-73
2021/12/10 14:09:43;;;;;;;9.65;2.00;;;;;;;;;;5067653;28;20374;-73
2021/12/10 14:12:29;;;;;;;9.18;2.17;;;;;;;;;;5069028;28;20031;-73
2021/12/10 14:15:10;;;;;;;13.27;2.88;;;;;;;;;;5068290;28;20028;-73
2021/12/10 14:17:40;;;;;;;13.75;2.65;;;;;;;;;;5071147;28;20054;-72
2021/12/10 14:20:19;;;;;;;12.40;2.00;;;;;;;;;;5069130;28;20515;-73
2021/12/10 14:22:51;;;;;;;9.43;1.88;;;;;;;;;;5067693;28;20505;-73
2021/12/10 14:25:23;;;;;;;14.40;2.00;;;;;;;;;;5066675;28;20028;-73
2021/12/10 14:27:52;;;;;;;6.30;2.13;;;;;;;;;;5068568;28;20033;-73
2021/12/10 14:30:23;;;;;;;6.63;1.20;;;;;;;;;;5067679;28;20454;-73
2021/12/10 14:33:04;;;;;;;9.38;1.77;;;;;;;;;;5070974;28;20513;-73
2021/12/10 14:35:38;;;;;;;5.53;1.42;;;;;;;;;;5069476;28;20029;-73
2021/12/10 14:38:06;;;;;;;8.43;1.85;;;;;;;;;;5067901;28;20042;-73
2021/12/10 14:40:48;;;;;;;7.88;1.45;;;;;;;;;;5067401;28;20034;-73
2021/12/10 14:43:20;;;;;;;4.82;1.30;;;;;;;;;;5067094;28;20034;-73
2021/12/10 14:46:05;;;;;;;6.40;1.70;;;;;;;;;;5067264;28;20029;-73
2021/12/10 14:48:32;;;;;;;6.38;1.58;;;;;;;;;;5051577;28;20025;-73
2021/12/10 14:51:04;;;;;;;7.50;1.52;;;;;;;;;;5070386;28;20041;-73
2021/12/10 14:53:30;;;;;;;9.60;1.70;;;;;;;;;;5068760;28;20081;-73
2021/12/10 14:56:14;;;;;;;9.98;1.45;;;;;;;;;;5067128;28;20501;-72
2021/12/10 14:58:41;;;;;;;7.43;1.70;;;;;;;;;;5067280;28;20036;-73
2021/12/10 15:01:09;;;;;;;5.20;1.13;;;;;;;;;;5067538;28;20013;-73
2021/12/10 15:03:40;;;;;;;7.88;1.55;;;;;;;;;;5067869;28;20443;-73
2021/12/10 15:06:07;;;;;;;;;;;;;;;;;;5070562;28;20032;-73
2021/12/10 15:08:49;;;;;;;7.18;1.35;;;;;;;;;;5069090;28;19912;-73